Time;durP1;ratioP1;P1;durP2;ratioP2;P2;SDS_P1;SDS_P2;PMS_P1;PMS_P2;Temp;Humidity;BMP_temperature;BMP_pressure;BME280_temperature;BME280_humidity;BME280_pressure;Samples;Min_cycle;Max_cycle;Signal;HPM_P1;HPM_P2
2022/10/13 00:03:17;;;;;;;39.30;14.50;;;12.50;99.90;;;;;;21068023;28;20032;-81
2022/10/13 00:13:19;;;;;;;36.22;12.32;;;12.40;99.90;;;;;;21065777;28;20040;-80
2022/10/13 00:23:20;;;;;;;27.02;11.43;;;12.50;99.90;;;;;;21012381;22;20409;-74
2022/10/13 00:33:21;;;;;;;;;;;12.50;99.90;;;;;;20989609;28;20045;-73
2022/10/13 00:43:24;;;;;;;30.67;11.37;;;12.10;99.90;;;;;;20970694;28;19939;-73
2022/10/13 00:53:30;;;;;;;36.88;13.70;;;12.00;99.90;;;;;;20988285;28;20376;-73
2022/10/13 01:03:31;;;;;;;33.67;13.73;;;12.00;99.90;;;;;;20987845;28;20045;-73
2022/10/13 01:13:38;;;;;;;34.60;12.67;;;11.90;99.90;;;;;;20987409;28;20036;-73
2022/10/13 01:23:58;;;;;;;31.52;13.73;;;12.10;99.90;;;;;;20992140;28;20064;-73
2022/10/13 01:34:31;;;;;;;25.35;12.02;;;12.30;99.90;;;;;;21001660;28;20502;-73
2022/10/13 01:44:37;;;;;;;31.05;11.93;;;12.30;99.90;;;;;;20983074;28;20036;-74
2022/10/13 01:54:38;;;;;;;26.33;11.95;;;12.40;99.90;;;;;;20999053;28;20037;-73
2022/10/13 02:04:52;;;;;;;27.87;12.17;;;12.40;99.90;;;;;;20927874;28;20578;-73
2022/10/13 02:14:56;;;;;;;32.67;14.15;;;12.40;99.90;;;;;;20915677;28;20044;-73
2022/10/13 02:24:57;;;;;;;32.13;12.90;;;12.50;99.90;;;;;;20914810;28;20142;-73
2022/10/13 02:34:57;;;;;;;24.93;10.93;;;12.50;99.90;;;;;;20913531;28;20120;-73
2022/10/13 02:44:58;;;;;;;23.77;9.73;;;12.60;99.90;;;;;;20895557;28;20114;-74
2022/10/13 02:54:59;;;;;;;26.60;12.30;;;12.60;99.90;;;;;;20912447;28;20072;-74
2022/10/13 03:05:00;;;;;;;25.27;12.70;;;12.60;99.90;;;;;;20911676;28;20049;-74
2022/10/13 03:15:00;;;;;;;28.07;12.40;;;12.50;99.90;;;;;;20910923;28;20033;-73
2022/10/13 03:25:02;;;;;;;24.20;10.93;;;12.50;99.90;;;;;;20909920;28;20044;-73
2022/10/13 03:35:05;;;;;;;24.65;11.30;;;12.60;99.90;;;;;;21008552;28;20032;-74
2022/10/13 03:45:06;;;;;;;20.10;8.82;;;12.50;99.90;;;;;;21061848;28;20521;-75
2022/10/13 03:55:09;;;;;;;23.23;10.88;;;12.80;99.90;;;;;;21035304;28;20434;-75
2022/10/13 04:05:10;;;;;;;31.73;11.60;;;12.60;99.90;;;;;;21076776;28;20048;-76
2022/10/13 04:15:11;;;;;;;31.07;12.10;;;12.60;99.90;;;;;;20988920;28;20463;-76
2022/10/13 04:25:11;;;;;;;27.73;12.03;;;12.60;99.90;;;;;;20937222;28;20029;-77
2022/10/13 04:35:12;;;;;;;25.13;10.77;;;12.60;99.90;;;;;;20911631;28;20040;-76
2022/10/13 04:45:13;;;;;;;28.97;13.17;;;12.60;99.90;;;;;;20892664;28;20075;-76
2022/10/13 04:55:16;;;;;;;42.00;14.80;;;12.50;99.90;;;;;;20906748;28;20431;-76
2022/10/13 05:05:17;;;;;;;33.20;15.68;;;12.50;99.90;;;;;;20937145;28;20115;-77
2022/10/13 05:15:18;;;;;;;36.23;16.97;;;12.40;99.90;;;;;;20952912;28;20474;-77
2022/10/13 05:25:19;;;;;;;46.67;18.17;;;12.30;99.90;;;;;;20956575;28;20076;-75
2022/10/13 05:35:20;;;;;;;44.63;17.97;;;12.20;99.90;;;;;;20919960;28;20041;-75
2022/10/13 05:45:22;;;;;;;37.70;19.03;;;12.20;99.90;;;;;;20919059;28;20069;-75
2022/10/13 05:55:23;;;;;;;41.00;18.73;;;12.10;99.90;;;;;;20918567;28;20071;-75
2022/10/13 06:05:26;;;;;;;43.03;19.53;;;12.00;99.90;;;;;;20918299;28;20033;-75
2022/10/13 06:15:30;;;;;;;43.80;19.05;;;12.00;99.90;;;;;;20916160;28;20048;-75
2022/10/13 06:25:31;;;;;;;44.65;20.00;;;12.20;99.90;;;;;;21029490;22;20106;-76
2022/10/13 06:35:32;;;;;;;54.63;22.27;;;12.50;99.90;;;;;;20935197;22;20048;-75
2022/10/13 06:45:33;;;;;;;53.30;22.37;;;12.40;99.90;;;;;;20996537;28;20048;-76
2022/10/13 06:55:34;;;;;;;63.70;23.23;;;12.60;99.90;;;;;;20999490;28;20036;-75
2022/10/13 07:05:34;;;;;;;52.80;23.03;;;12.80;99.90;;;;;;20995765;28;20463;-75
2022/10/13 07:15:39;;;;;;;49.60;22.07;;;12.80;99.90;;;;;;20994833;28;20068;-75
2022/10/13 07:25:40;;;;;;;48.83;22.00;;;13.00;99.90;;;;;;20978610;28;20101;-76
2022/10/13 07:35:42;;;;;;;57.05;22.02;;;13.00;99.90;;;;;;20920230;28;20037;-77
2022/10/13 07:45:45;;;;;;;53.30;22.77;;;13.10;99.90;;;;;;20988869;28;20114;-76
2022/10/13 07:55:46;;;;;;;48.63;20.02;;;13.30;99.90;;;;;;20991930;28;20044;-76
2022/10/13 08:05:46;;;;;;;47.93;20.97;;;13.40;99.90;;;;;;20987897;28;20090;-77
2022/10/13 08:15:47;;;;;;;51.80;20.53;;;13.90;99.90;;;;;;20977467;28;20024;-77
2022/10/13 08:25:48;;;;;;;52.67;22.00;;;14.20;99.90;;;;;;20956761;28;20048;-75
2022/10/13 08:35:49;;;;;;;38.20;20.00;;;14.40;99.90;;;;;;21006429;28;20134;-77
2022/10/13 08:45:55;;;;;;;43.67;20.55;;;14.70;99.90;;;;;;20997503;28;20040;-75
2022/10/13 08:56:08;;;;;;;44.78;21.23;;;14.60;99.90;;;;;;21017167;28;20043;-76
2022/10/13 09:06:15;;;;;;;47.95;20.80;;;14.60;99.90;;;;;;20997766;28;20040;-75
2022/10/13 09:16:36;;;;;;;57.45;23.05;;;14.60;99.90;;;;;;20993328;28;20036;-76
2022/10/13 09:26:38;;;;;;;52.67;23.50;;;14.70;99.90;;;;;;20931798;28;20040;-76
2022/10/13 09:36:53;;;;;;;;;;;15.00;99.90;;;;;;20933194;28;20490;-76
2022/10/13 09:46:57;;;;;;;48.35;19.80;;;15.30;99.90;;;;;;20941804;28;19912;-76
2022/10/13 09:57:06;;;;;;;40.08;18.85;;;16.00;99.90;;;;;;20937812;28;20087;-75
2022/10/13 10:07:14;;;;;;;46.20;20.10;;;16.40;99.90;;;;;;20971555;28;20041;-76
2022/10/13 10:17:45;;;;;;;48.72;22.27;;;16.40;99.90;;;;;;20916120;28;20048;-76
2022/10/13 10:28:04;;;;;;;40.50;18.85;;;16.90;99.90;;;;;;20915191;28;20514;-76
2022/10/13 10:38:36;;;;;;;43.25;19.98;;;16.90;99.90;;;;;;20897256;28;20056;-76
2022/10/13 10:48:38;;;;;;;33.50;17.67;;;17.70;99.90;;;;;;20895842;28;20076;-76
2022/10/13 10:58:42;;;;;;;39.10;18.00;;;17.40;99.90;;;;;;20895186;28;20060;-76
2022/10/13 11:08:45;;;;;;;32.67;15.82;;;17.50;99.90;;;;;;20893996;28;20127;-75
2022/10/13 11:19:24;;;;;;;31.77;14.50;;;18.20;99.90;;;;;;20910705;28;20041;-76
2022/10/13 11:29:45;;;;;;;33.35;15.40;;;17.40;99.90;;;;;;20910018;28;20415;-76
2022/10/13 11:40:14;;;;;;;28.98;10.35;;;17.60;99.90;;;;;;20874502;28;20069;-75
2022/10/13 11:50:50;;;;;;;22.50;10.65;;;17.40;99.90;;;;;;20911727;28;20045;-77
2022/10/13 12:00:57;;;;;;;22.55;8.45;;;17.30;99.90;;;;;;20910708;28;20125;-76
2022/10/13 12:11:01;;;;;;;30.42;8.00;;;17.10;99.90;;;;;;20907397;28;20079;-77
2022/10/13 12:21:09;;;;;;;23.55;8.32;;;17.60;99.90;;;;;;20928043;22;20045;-76
2022/10/13 12:31:27;;;;;;;20.10;8.30;;;17.60;99.90;;;;;;20891340;28;20036;-77
2022/10/13 12:41:31;;;;;;;12.18;4.82;;;18.00;99.90;;;;;;20880570;28;20060;-78
2022/10/13 12:51:34;;;;;;;17.50;5.43;;;18.10;99.90;;;;;;20893084;28;20037;-78
2022/10/13 13:01:35;;;;;;;10.35;5.00;;;17.80;99.90;;;;;;20892064;28;20048;-77
2022/10/13 13:11:37;;;;;;;10.97;4.30;;;18.00;99.90;;;;;;20872950;28;20033;-77
2022/10/13 13:21:38;;;;;;;10.82;4.32;;;17.80;99.90;;;;;;20896345;28;20402;-77
2022/10/13 13:31:39;;;;;;;13.50;4.00;;;17.70;99.90;;;;;;20913165;28;20041;-76
2022/10/13 13:41:39;;;;;;;12.33;3.20;;;17.70;99.90;;;;;;20901453;28;20033;-77
2022/10/13 13:51:40;;;;;;;12.57;3.37;;;17.80;99.90;;;;;;20904891;28;20040;-76
2022/10/13 14:01:41;;;;;;;15.53;3.20;;;17.90;99.90;;;;;;20918568;28;20068;-76
2022/10/13 14:11:42;;;;;;;10.67;3.07;;;17.50;99.90;;;;;;20963026;28;20037;-76
2022/10/13 14:21:44;;;;;;;15.57;3.20;;;17.40;99.90;;;;;;20893192;28;20135;-76
2022/10/13 14:31:51;;;;;;;12.73;3.58;;;17.30;99.90;;;;;;20900959;28;20131;-76
2022/10/13 14:41:52;;;;;;;12.57;3.40;;;18.00;99.90;;;;;;20888266;28;20428;-77
2022/10/13 14:51:53;;;;;;;7.57;3.10;;;17.60;99.90;;;;;;20908069;28;20041;-77
2022/10/13 15:01:53;;;;;;;12.80;3.97;;;17.40;99.90;;;;;;20914156;28;20108;-76
2022/10/13 15:11:54;;;;;;;20.50;5.40;;;17.10;99.90;;;;;;20914573;28;20517;-76
2022/10/13 15:21:55;;;;;;;9.87;4.13;;;17.10;99.90;;;;;;20882642;28;20029;-75
2022/10/13 15:32:25;;;;;;;15.17;3.70;;;17.10;99.90;;;;;;20901301;28;20040;-76
2022/10/13 15:42:28;;;;;;;9.77;4.22;;;17.10;99.90;;;;;;20872121;28;20048;-76
2022/10/13 15:52:29;;;;;;;8.03;4.13;;;16.80;99.90;;;;;;20883014;28;20041;-76
2022/10/13 16:02:30;;;;;;;11.57;4.53;;;16.60;99.90;;;;;;20887162;28;20098;-75
2022/10/13 16:12:31;;;;;;;8.50;3.90;;;16.20;99.90;;;;;;20863538;28;20050;-76
2022/10/13 16:22:32;;;;;;;9.63;3.97;;;16.00;99.90;;;;;;20908480;28;20817;-76
2022/10/13 16:32:37;;;;;;;12.57;5.00;;;15.70;99.90;;;;;;20896611;28;20494;-76
2022/10/13 16:42:38;;;;;;;15.43;6.22;;;15.40;99.90;;;;;;20894220;28;20524;-76
2022/10/13 16:52:39;;;;;;;16.83;7.07;;;15.20;99.90;;;;;;20906747;28;20056;-78
2022/10/13 17:02:40;;;;;;;14.93;7.70;;;14.90;99.90;;;;;;20926901;28;20394;-78
2022/10/13 17:12:41;;;;;;;45.60;18.60;;;14.60;99.90;;;;;;20892998;28;20585;-78
2022/10/13 17:22:41;;;;;;;30.60;9.50;;;14.50;99.90;;;;;;20920690;28;20047;-79
2022/10/13 17:32:42;;;;;;;13.87;7.67;;;14.50;99.90;;;;;;20898406;28;20128;-78
2022/10/13 17:42:43;;;;;;;22.67;10.70;;;14.20;99.90;;;;;;20917458;28;20075;-79
2022/10/13 17:52:44;;;;;;;23.83;10.10;;;14.20;99.90;;;;;;20904656;28;20040;-78
2022/10/13 18:02:45;;;;;;;23.13;10.20;;;14.00;99.90;;;;;;20909116;28;20045;-79
2022/10/13 18:12:46;;;;;;;24.27;9.60;;;14.00;99.90;;;;;;20929891;28;20537;-78
2022/10/13 18:22:46;;;;;;;20.97;9.77;;;13.80;99.90;;;;;;20925157;28;20037;-78
2022/10/13 18:32:47;;;;;;;16.43;8.40;;;13.60;99.90;;;;;;20922201;28;20454;-77
2022/10/13 18:42:48;;;;;;;15.47;7.73;;;13.50;99.90;;;;;;20902021;28;20048;-79
2022/10/13 18:52:49;;;;;;;19.27;8.47;;;13.50;99.90;;;;;;20923284;28;20439;-78
2022/10/13 19:02:52;;;;;;;19.83;10.10;;;13.40;99.90;;;;;;20913791;28;20246;-77
2022/10/13 19:12:52;;;;;;;22.52;10.68;;;13.30;99.90;;;;;;20915052;28;20380;-78
2022/10/13 19:22:54;;;;;;;22.87;10.30;;;13.20;99.90;;;;;;20946889;22;20057;-79
2022/10/13 19:32:54;;;;;;;21.77;11.13;;;13.20;99.90;;;;;;20821892;28;20148;-78
2022/10/13 19:42:55;;;;;;;21.83;10.33;;;13.20;99.90;;;;;;20750947;28;20050;-79
2022/10/13 19:52:56;;;;;;;25.30;10.00;;;13.20;99.90;;;;;;20780392;28;20034;-79
2022/10/13 20:02:57;;;;;;;24.33;10.03;;;13.10;99.90;;;;;;20764684;28;20037;-78
2022/10/13 20:12:58;;;;;;;17.60;10.23;;;13.10;99.90;;;;;;20792147;28;20482;-78
2022/10/13 20:22:59;;;;;;;32.60;10.33;;;13.10;99.90;;;;;;20770725;28;20034;-79
2022/10/13 20:33:00;;;;;;;21.50;11.13;;;13.10;99.90;;;;;;20760708;28;20100;-79
2022/10/13 20:43:01;;;;;;;22.60;10.85;;;13.00;99.90;;;;;;20798667;28;20402;-81
2022/10/13 20:53:02;;;;;;;23.17;11.20;;;13.00;99.90;;;;;;20800423;28;20044;-81
2022/10/13 21:03:03;;;;;;;34.30;12.38;;;13.00;99.90;;;;;;20810754;28;20041;-80
2022/10/13 21:13:04;;;;;;;21.77;11.40;;;13.00;99.90;;;;;;20809129;28;20048;-81
2022/10/13 21:23:05;;;;;;;21.40;10.43;;;13.00;99.90;;;;;;20797188;28;20589;-82
2022/10/13 21:33:06;;;;;;;19.17;11.10;;;13.00;99.90;;;;;;20832654;28;20041;-80
2022/10/13 21:43:07;;;;;;;24.40;12.20;;;13.00;99.90;;;;;;20823041;28;20284;-81
2022/10/13 21:53:08;;;;;;;23.10;10.87;;;13.00;99.90;;;;;;20812236;28;20046;-80
2022/10/13 22:03:08;;;;;;;28.03;12.23;;;13.00;99.90;;;;;;20761910;28;20034;-81
2022/10/13 22:13:10;;;;;;;28.83;12.20;;;12.90;99.90;;;;;;20745876;28;20068;-78
2022/10/13 22:23:10;;;;;;;29.70;13.80;;;12.80;99.90;;;;;;20727097;28;20434;-80
2022/10/13 22:33:11;;;;;;;25.57;12.63;;;12.60;99.90;;;;;;20752535;28;20215;-80
2022/10/13 22:43:13;;;;;;;27.10;13.20;;;12.70;99.90;;;;;;20751064;28;20038;-80
2022/10/13 22:53:13;;;;;;;22.80;11.70;;;12.70;99.90;;;;;;20730971;28;20077;-81
2022/10/13 23:03:14;;;;;;;34.70;11.57;;;12.70;99.90;;;;;;20730945;28;20049;-80
2022/10/13 23:13:19;;;;;;;34.03;13.20;;;12.60;99.90;;;;;;20731358;28;20073;-80
2022/10/13 23:23:22;;;;;;;26.80;12.60;;;12.70;99.90;;;;;;20728666;28;20053;-80
2022/10/13 23:33:23;;;;;;;19.83;10.70;;;12.60;99.90;;;;;;20745939;28;20030;-80
2022/10/13 23:43:24;;;;;;;26.87;11.27;;;12.50;99.90;;;;;;20745759;28;21011;-80
2022/10/13 23:53:25;;;;;;;27.70;11.23;;;12.40;99.90;;;;;;20727609;28;20042;-81
